Vint Hill Farms, Virginia
Current Conditions -  °F | °C
As of 7:15 PM on Monday 20 Oct 2014 (Local Time) from KHWY Reporting Station
Clear Clear  
Wind Chill: 60°   Ceiling: Unl
Heat Index: 60°   Visibility: 10mi
Dew Point: 53°   Wind: 3mph
Humidity: 77%   Direction: 150°SSE
Pressure: 29.94"   Gusts: NA
Location:  38.7217°N, 77.7849°W
Report Text: KHWY 202315Z AUTO 15003KT 10SM CLR 16/12 A2994 RMK AO2 T01570117
Loading
Personal Weather Stations






























Interactive Weather Map
Tropical Storm Tracking
New forecast layout! Learn more

10-Day Weather Forecast

Advertisements
Track Severe Weather on mobile